createdAt,value
2022-10-11T00:01:22.367Z,10.56
2022-10-11T00:03:52.152Z,10.52
2022-10-11T00:06:21.873Z,10.51
2022-10-11T00:08:51.638Z,10.50
2022-10-11T00:11:24.076Z,10.50
2022-10-11T00:13:53.814Z,10.47
2022-10-11T00:16:23.697Z,10.46
2022-10-11T00:18:53.700Z,10.44
2022-10-11T00:21:23.860Z,10.43
2022-10-11T00:23:53.673Z,10.39
2022-10-11T00:26:26.017Z,10.38
2022-10-11T00:28:55.958Z,10.35
2022-10-11T00:31:26.240Z,10.33
2022-10-11T00:33:56.729Z,10.32
2022-10-11T00:36:26.563Z,10.29
2022-10-11T00:38:56.345Z,10.29
2022-10-11T00:41:28.729Z,10.29
2022-10-11T00:44:17.846Z,10.27
2022-10-11T00:46:55.902Z,10.25
2022-10-11T00:49:34.698Z,10.21
2022-10-11T00:52:09.068Z,10.21
2022-10-11T00:54:44.054Z,10.19
2022-10-11T00:57:21.810Z,10.18
2022-10-11T00:59:55.404Z,10.16
2022-10-11T01:02:26.681Z,10.15
2022-10-11T01:05:17.848Z,10.14
2022-10-11T01:07:50.872Z,10.13
2022-10-11T01:10:20.833Z,10.13
2022-10-11T01:13:10.204Z,10.14
2022-10-11T01:15:44.382Z,10.16
2022-10-11T01:18:22.299Z,10.16
2022-10-11T01:21:03.465Z,10.16
2022-10-11T01:24:11.692Z,10.17
2022-10-11T01:27:19.786Z,10.14
2022-10-11T01:30:00.280Z,10.10
2022-10-11T01:32:40.857Z,10.09
2022-10-11T01:35:19.372Z,10.08
2022-10-11T01:37:54.506Z,10.05
2022-10-11T01:40:30.194Z,10.04
2022-10-11T01:43:00.515Z,10.02
2022-10-11T01:45:30.365Z,10.00
2022-10-11T01:48:15.018Z,9.98
2022-10-11T01:50:47.437Z,9.95
2022-10-11T01:53:46.922Z,9.94
2022-10-11T01:56:29.143Z,9.92
2022-10-11T01:59:14.130Z,9.93
2022-10-11T02:01:57.556Z,9.89
2022-10-11T02:04:36.536Z,9.87
2022-10-11T02:07:11.706Z,9.85
2022-10-11T02:09:49.564Z,9.84
2022-10-11T02:12:26.398Z,9.88
2022-10-11T02:14:58.818Z,9.88
2022-10-11T02:17:34.982Z,9.88
2022-10-11T02:20:14.483Z,9.88
2022-10-11T02:22:48.775Z,9.85
2022-10-11T02:25:23.072Z,9.84
2022-10-11T02:27:57.227Z,9.83
2022-10-11T02:30:27.077Z,9.81
2022-10-11T02:33:00.235Z,9.83
2022-10-11T02:35:38.027Z,9.84
2022-10-11T02:38:17.085Z,9.87
2022-10-11T02:40:51.735Z,9.88
2022-10-11T02:43:27.023Z,9.90
2022-10-11T02:46:00.701Z,9.92
2022-10-11T02:48:31.591Z,9.92
2022-10-11T02:51:05.177Z,9.94
2022-10-11T02:53:35.131Z,9.93
2022-10-11T02:56:05.224Z,9.92
2022-10-11T02:58:35.191Z,9.89
2022-10-11T03:01:05.040Z,9.88
2022-10-11T03:03:34.805Z,9.87
2022-10-11T03:06:08.314Z,9.86
2022-10-11T03:08:38.362Z,9.83
2022-10-11T03:11:08.162Z,9.80
2022-10-11T03:13:37.916Z,9.73
2022-10-11T03:16:07.951Z,9.74
2022-10-11T03:18:37.954Z,9.74
2022-10-11T03:21:10.299Z,9.72
2022-10-11T03:23:40.232Z,9.68
2022-10-11T03:26:09.943Z,9.63
2022-10-11T03:28:39.778Z,9.60
2022-10-11T03:31:09.550Z,9.57
2022-10-11T03:33:39.335Z,9.55
2022-10-11T03:36:11.862Z,9.58
2022-10-11T03:38:41.566Z,9.60
2022-10-11T03:41:11.375Z,9.62
2022-10-11T03:43:41.104Z,9.64
2022-10-11T03:46:10.846Z,9.65
2022-10-11T03:48:40.620Z,9.68
2022-10-11T03:51:13.260Z,9.68
2022-10-11T03:53:43.059Z,9.66
2022-10-11T03:56:13.581Z,9.63
2022-10-11T03:58:43.730Z,9.58
2022-10-11T04:01:13.657Z,9.51
2022-10-11T04:03:43.391Z,9.48
2022-10-11T04:06:15.831Z,9.47
2022-10-11T04:08:45.549Z,9.49
2022-10-11T04:11:15.286Z,9.52
2022-10-11T04:13:44.975Z,9.52
2022-10-11T04:16:14.732Z,9.54
2022-10-11T04:18:44.507Z,9.56
2022-10-11T04:21:16.821Z,9.53
2022-10-11T04:23:46.649Z,9.49
2022-10-11T04:26:16.361Z,9.46
2022-10-11T04:28:46.164Z,9.46
2022-10-11T04:31:15.988Z,9.48
2022-10-11T04:33:45.734Z,9.51
2022-10-11T04:36:18.140Z,9.52
2022-10-11T04:38:47.949Z,9.53
2022-10-11T04:41:18.840Z,9.55
2022-10-11T04:43:48.529Z,9.58
2022-10-11T04:46:18.304Z,9.58
2022-10-11T04:48:48.057Z,9.59
2022-10-11T04:51:20.754Z,9.60
2022-10-11T04:53:50.771Z,9.58
2022-10-11T04:56:21.194Z,9.55
2022-10-11T04:58:54.236Z,9.54
2022-10-11T05:01:24.334Z,9.53
2022-10-11T05:03:54.089Z,9.51
2022-10-11T05:06:26.467Z,9.52
2022-10-11T05:08:56.426Z,9.50
2022-10-11T05:11:26.206Z,9.50
2022-10-11T05:13:56.736Z,9.49
2022-10-11T05:16:27.648Z,9.48
2022-10-11T05:18:57.413Z,9.47
2022-10-11T05:21:31.808Z,9.45
2022-10-11T05:24:01.568Z,9.43
2022-10-11T05:26:31.844Z,9.43
2022-10-11T05:29:01.685Z,9.42
2022-10-11T05:31:31.653Z,9.43
2022-10-11T05:34:01.369Z,9.41
2022-10-11T05:36:33.693Z,9.40
2022-10-11T05:39:03.450Z,9.37
2022-10-11T05:41:33.236Z,9.36
2022-10-11T05:44:03.272Z,9.34
2022-10-11T05:46:33.074Z,9.33
2022-10-11T05:49:03.364Z,9.31
2022-10-11T05:51:35.760Z,9.30
2022-10-11T05:54:05.599Z,9.31
2022-10-11T05:56:35.478Z,9.29
2022-10-11T05:59:05.283Z,9.30
2022-10-11T06:01:35.470Z,9.31
2022-10-11T06:04:05.550Z,9.29
2022-10-11T06:06:38.228Z,9.29
2022-10-11T06:09:08.174Z,9.29
2022-10-11T06:11:38.355Z,9.29
2022-10-11T06:14:08.411Z,9.31
2022-10-11T06:16:38.230Z,9.30
2022-10-11T06:19:08.423Z,9.31
2022-10-11T06:21:41.357Z,9.29
2022-10-11T06:24:12.472Z,9.29
2022-10-11T06:26:43.421Z,9.29
2022-10-11T06:29:13.256Z,9.29
2022-10-11T06:31:44.438Z,9.33
2022-10-11T06:34:14.278Z,9.35
2022-10-11T06:36:46.754Z,9.38
2022-10-11T06:39:16.481Z,9.42
2022-10-11T06:41:46.406Z,9.46
2022-10-11T06:44:17.427Z,9.50
2022-10-11T06:46:47.130Z,9.54
2022-10-11T06:49:22.193Z,9.58
2022-10-11T06:51:55.516Z,9.62
2022-10-11T06:54:25.262Z,9.66
2022-10-11T06:56:55.007Z,9.69
2022-10-11T06:59:24.755Z,9.72
2022-10-11T07:01:54.600Z,9.74
2022-10-11T07:04:24.365Z,9.78
2022-10-11T07:06:56.719Z,9.83
2022-10-11T07:09:26.610Z,9.85
2022-10-11T07:11:56.330Z,9.88
2022-10-11T07:14:26.062Z,9.92
2022-10-11T07:16:55.810Z,9.95
2022-10-11T07:19:25.550Z,10.00
2022-10-11T07:21:57.875Z,10.00
2022-10-11T07:24:27.613Z,10.02
2022-10-11T07:26:57.344Z,10.04
2022-10-11T07:29:27.156Z,10.06
2022-10-11T07:31:56.908Z,10.11
2022-10-11T07:34:26.613Z,10.17
2022-10-11T07:36:59.009Z,10.25
2022-10-11T07:39:28.739Z,10.32
2022-10-11T07:41:58.703Z,10.38
2022-10-11T07:44:28.574Z,10.46
2022-10-11T07:46:58.469Z,10.51
2022-10-11T07:49:28.232Z,10.57
2022-10-11T07:52:00.599Z,10.65
2022-10-11T07:54:30.318Z,10.72
2022-10-11T07:57:00.174Z,10.78
2022-10-11T07:59:30.133Z,10.86
2022-10-11T08:02:00.423Z,10.94
2022-10-11T08:04:30.373Z,11.02
2022-10-11T08:07:02.864Z,11.11
2022-10-11T08:09:33.212Z,11.17
2022-10-11T08:12:03.119Z,11.24
2022-10-11T08:14:35.694Z,11.30
2022-10-11T08:17:05.704Z,11.38
2022-10-11T08:19:35.548Z,11.44
2022-10-11T08:22:07.988Z,11.53
2022-10-11T08:24:38.542Z,11.61
2022-10-11T08:27:08.750Z,11.71
2022-10-11T08:29:39.748Z,11.78
2022-10-11T08:32:12.107Z,11.85
2022-10-11T08:34:42.134Z,11.95
2022-10-11T08:37:14.523Z,12.08
2022-10-11T08:39:44.502Z,12.23
2022-10-11T08:42:18.357Z,12.37
2022-10-11T08:45:09.955Z,12.52
2022-10-11T08:47:43.654Z,12.65
2022-10-11T08:50:20.057Z,12.77
2022-10-11T08:52:56.646Z,12.89
2022-10-11T08:55:44.112Z,12.99
2022-10-11T08:58:17.877Z,13.08
2022-10-11T09:00:51.583Z,13.15
2022-10-11T09:03:38.150Z,13.26
2022-10-11T09:06:21.097Z,13.35
2022-10-11T09:09:14.244Z,13.45
2022-10-11T09:11:56.824Z,13.50
2022-10-11T09:14:48.124Z,13.58
2022-10-11T09:17:32.445Z,13.66
2022-10-11T09:20:34.258Z,13.73
2022-10-11T09:23:07.707Z,13.79
2022-10-11T09:25:47.056Z,13.89
2022-10-11T09:28:29.014Z,13.97
2022-10-11T09:31:00.644Z,14.06
2022-10-11T09:33:36.190Z,14.12
2022-10-11T09:36:19.432Z,14.19
2022-10-11T09:38:54.937Z,14.26
2022-10-11T09:41:36.191Z,14.31
2022-10-11T09:44:06.048Z,14.35
2022-10-11T09:46:39.536Z,14.39
2022-10-11T09:49:15.115Z,14.44
2022-10-11T09:51:49.413Z,14.54
2022-10-11T09:54:27.419Z,14.60
2022-10-11T09:56:59.911Z,14.62
2022-10-11T09:59:31.855Z,14.63
2022-10-11T10:02:21.572Z,14.64
2022-10-11T10:05:06.543Z,14.63
2022-10-11T10:07:38.026Z,14.59
2022-10-11T10:10:31.232Z,14.58
2022-10-11T10:13:05.569Z,14.55
2022-10-11T10:15:37.777Z,14.55
2022-10-11T10:18:10.707Z,14.53
2022-10-11T10:20:41.362Z,14.50
2022-10-11T10:23:20.393Z,14.48
2022-10-11T10:25:52.352Z,14.44
2022-10-11T10:28:27.033Z,14.44
2022-10-11T10:30:59.642Z,14.44
2022-10-11T10:33:33.278Z,14.47
2022-10-11T10:36:09.065Z,14.49
2022-10-11T10:38:45.676Z,14.51
2022-10-11T10:41:21.505Z,14.56
2022-10-11T10:43:58.615Z,14.63
2022-10-11T10:46:48.749Z,14.67
2022-10-11T10:49:52.519Z,14.68
2022-10-11T10:52:46.122Z,14.75
2022-10-11T10:55:25.660Z,14.82
2022-10-11T10:58:09.759Z,14.88
2022-10-11T11:00:50.028Z,14.91
2022-10-11T11:03:27.084Z,14.97
2022-10-11T11:06:04.868Z,14.97
2022-10-11T11:08:50.933Z,15.00
2022-10-11T11:11:39.290Z,15.01
2022-10-11T11:14:30.812Z,15.00
2022-10-11T11:17:13.832Z,14.98
2022-10-11T11:19:56.581Z,14.98
2022-10-11T11:22:34.100Z,14.99
2022-10-11T11:25:20.218Z,14.98
2022-10-11T11:28:00.046Z,14.97
2022-10-11T11:30:39.578Z,14.99
2022-10-11T11:33:22.243Z,15.03
2022-10-11T11:35:55.762Z,15.05
2022-10-11T11:38:32.350Z,15.09
2022-10-11T11:41:06.380Z,15.11
2022-10-11T11:43:40.412Z,15.17
2022-10-11T11:46:17.528Z,15.21
2022-10-11T11:48:51.592Z,15.24
2022-10-11T11:51:30.445Z,15.26
2022-10-11T11:54:10.148Z,15.29
2022-10-11T11:56:54.451Z,15.36
2022-10-11T11:59:33.435Z,15.40
2022-10-11T12:02:22.376Z,15.43
2022-10-11T12:04:55.915Z,15.46
2022-10-11T12:07:27.990Z,15.50
2022-10-11T12:10:19.704Z,15.57
2022-10-11T12:12:49.549Z,15.63
2022-10-11T12:15:24.450Z,15.69
2022-10-11T12:18:07.441Z,15.74
2022-10-11T12:20:41.855Z,15.72
2022-10-11T12:23:43.108Z,15.69
2022-10-11T12:26:41.718Z,15.66
2022-10-11T12:29:29.263Z,15.65
2022-10-11T12:32:28.990Z,15.65
2022-10-11T12:35:28.482Z,15.65
2022-10-11T12:38:16.433Z,15.58
2022-10-11T12:40:48.615Z,15.54
2022-10-11T12:43:37.112Z,15.54
2022-10-11T12:46:36.894Z,15.52
2022-10-11T12:49:24.670Z,15.48
2022-10-11T12:52:02.054Z,15.49
2022-10-11T12:54:47.364Z,15.49
2022-10-11T12:57:47.641Z,15.48
2022-10-11T13:00:30.073Z,15.45
2022-10-11T13:03:01.749Z,15.44
2022-10-11T13:05:42.010Z,15.40
2022-10-11T13:08:26.027Z,15.39
2022-10-11T13:11:01.723Z,15.35
2022-10-11T13:13:35.565Z,15.32
2022-10-11T13:16:12.085Z,15.35
2022-10-11T13:18:45.816Z,15.35
2022-10-11T13:21:23.187Z,15.35
2022-10-11T13:23:58.645Z,15.36
2022-10-11T13:26:33.537Z,15.37
2022-10-11T13:29:03.815Z,15.36
2022-10-11T13:31:34.118Z,15.32
2022-10-11T13:34:03.961Z,15.28
2022-10-11T13:36:34.825Z,15.28
2022-10-11T13:39:05.511Z,15.28
2022-10-11T13:41:38.143Z,15.33
2022-10-11T13:44:08.395Z,15.36
2022-10-11T13:46:41.936Z,15.39
2022-10-11T13:49:29.940Z,15.42
2022-10-11T13:52:02.503Z,15.42
2022-10-11T13:54:57.589Z,15.45
2022-10-11T13:57:37.282Z,15.45
2022-10-11T14:00:12.902Z,15.47
2022-10-11T14:02:49.796Z,15.46
2022-10-11T14:05:27.748Z,15.48
2022-10-11T14:07:57.657Z,15.51
2022-10-11T14:10:27.578Z,15.55
2022-10-11T14:13:06.776Z,15.59
2022-10-11T14:15:38.826Z,15.62
2022-10-11T14:18:37.402Z,15.67
2022-10-11T14:21:36.515Z,15.67
2022-10-11T14:24:10.646Z,15.68
2022-10-11T14:26:42.896Z,15.66
2022-10-11T14:29:20.443Z,15.65
2022-10-11T14:31:50.442Z,15.65
2022-10-11T14:34:22.671Z,15.62
2022-10-11T14:36:53.771Z,15.59
2022-10-11T14:39:26.239Z,15.54
2022-10-11T14:41:56.543Z,15.52
2022-10-11T14:44:29.142Z,15.51
2022-10-11T14:46:59.191Z,15.52
2022-10-11T14:49:31.674Z,15.53
2022-10-11T14:52:01.822Z,15.53
2022-10-11T14:54:33.455Z,15.51
2022-10-11T14:57:05.373Z,15.46
2022-10-11T14:59:40.253Z,15.40
2022-10-11T15:02:14.068Z,15.38
2022-10-11T15:04:43.805Z,15.39
2022-10-11T15:07:15.252Z,15.38
2022-10-11T15:09:45.069Z,15.36
2022-10-11T15:12:14.812Z,15.35
2022-10-11T15:14:47.240Z,15.33
2022-10-11T15:17:16.975Z,15.32
2022-10-11T15:19:46.800Z,15.32
2022-10-11T15:22:16.516Z,15.34
2022-10-11T15:24:51.400Z,15.32
2022-10-11T15:27:25.523Z,15.30
2022-10-11T15:29:57.891Z,15.31
2022-10-11T15:32:27.798Z,15.30
2022-10-11T15:34:57.549Z,15.32
2022-10-11T15:37:27.610Z,15.28
2022-10-11T15:39:57.535Z,15.27
2022-10-11T15:42:27.282Z,15.24
2022-10-11T15:44:59.663Z,15.22
2022-10-11T15:47:29.449Z,15.20
2022-10-11T15:49:59.204Z,15.22
2022-10-11T15:52:29.002Z,15.22
2022-10-11T15:54:58.774Z,15.23
2022-10-11T15:57:28.532Z,15.24
2022-10-11T16:00:00.923Z,15.26
2022-10-11T16:02:31.472Z,15.25
2022-10-11T16:05:01.536Z,15.24
2022-10-11T16:07:31.490Z,15.21
2022-10-11T16:10:01.256Z,15.21
2022-10-11T16:12:31.088Z,15.20
2022-10-11T16:15:03.509Z,15.17
2022-10-11T16:17:33.398Z,15.14
2022-10-11T16:20:07.155Z,15.13
2022-10-11T16:22:37.721Z,15.10
2022-10-11T16:25:08.359Z,15.09
2022-10-11T16:27:38.357Z,15.06
2022-10-11T16:30:12.708Z,15.04
2022-10-11T16:32:42.849Z,15.01
2022-10-11T16:35:15.061Z,14.98
2022-10-11T16:37:45.356Z,14.94
2022-10-11T16:40:17.824Z,14.89
2022-10-11T16:42:47.956Z,14.85
2022-10-11T16:45:20.486Z,14.81
2022-10-11T16:47:50.276Z,14.76
2022-10-11T16:50:20.103Z,14.70
2022-10-11T16:52:50.313Z,14.65
2022-10-11T16:55:20.180Z,14.60
2022-10-11T16:57:49.915Z,14.54
2022-10-11T17:00:22.649Z,14.47
2022-10-11T17:02:52.625Z,14.42
2022-10-11T17:05:22.379Z,14.36
2022-10-11T17:07:52.135Z,14.29
2022-10-11T17:10:39.440Z,14.25
2022-10-11T17:13:09.449Z,14.17
2022-10-11T17:15:42.275Z,14.13
2022-10-11T17:18:11.999Z,14.06
2022-10-11T17:20:41.769Z,14.01
2022-10-11T17:23:11.746Z,13.97
2022-10-11T17:25:44.995Z,13.92
2022-10-11T17:28:15.110Z,13.87
2022-10-11T17:30:55.851Z,13.81
2022-10-11T17:33:26.412Z,13.76
2022-10-11T17:35:56.407Z,13.70
2022-10-11T17:38:27.565Z,13.63
2022-10-11T17:41:03.276Z,13.59
2022-10-11T17:43:33.914Z,13.52
2022-10-11T17:46:08.937Z,13.47
2022-10-11T17:48:40.308Z,13.41
2022-10-11T17:51:11.761Z,13.35
2022-10-11T17:53:41.902Z,13.29
2022-10-11T17:56:13.573Z,13.23
2022-10-11T17:58:43.419Z,13.17
2022-10-11T18:01:19.114Z,13.12
2022-10-11T18:03:55.379Z,13.09
2022-10-11T18:06:25.774Z,13.04
2022-10-11T18:08:55.888Z,13.00
2022-10-11T18:11:25.957Z,12.95
2022-10-11T18:13:56.265Z,12.91
2022-10-11T18:16:30.544Z,12.87
2022-10-11T18:19:01.202Z,12.83
2022-10-11T18:21:34.672Z,12.80
2022-10-11T18:24:06.387Z,12.75
2022-10-11T18:26:37.365Z,12.72
2022-10-11T18:29:08.874Z,12.67
2022-10-11T18:31:42.498Z,12.63
2022-10-11T18:34:14.051Z,12.61
2022-10-11T18:36:43.813Z,12.55
2022-10-11T18:39:17.052Z,12.53
2022-10-11T18:41:47.293Z,12.49
2022-10-11T18:44:18.523Z,12.46
2022-10-11T18:46:51.242Z,12.43
2022-10-11T18:49:21.001Z,12.39
2022-10-11T18:51:50.831Z,12.36
2022-10-11T18:54:22.140Z,12.30
2022-10-11T18:56:52.271Z,12.28
2022-10-11T18:59:22.296Z,12.24
2022-10-11T19:01:54.918Z,12.20
2022-10-11T19:04:24.715Z,12.17
2022-10-11T19:06:54.465Z,12.12
2022-10-11T19:09:26.541Z,12.10
2022-10-11T19:11:57.630Z,12.06
2022-10-11T19:14:30.743Z,12.03
2022-10-11T19:17:03.086Z,12.00
2022-10-11T19:19:33.550Z,11.97
2022-10-11T19:22:04.451Z,11.95
2022-10-11T19:24:35.471Z,11.90
2022-10-11T19:27:05.184Z,11.88
2022-10-11T19:29:35.555Z,11.86
2022-10-11T19:32:08.340Z,11.83
2022-10-11T19:34:38.040Z,11.81
2022-10-11T19:37:07.918Z,11.77
2022-10-11T19:39:37.955Z,11.74
2022-10-11T19:42:07.802Z,11.71
2022-10-11T19:44:39.824Z,11.68
2022-10-11T19:47:12.494Z,11.66
2022-10-11T19:49:42.234Z,11.62
2022-10-11T19:52:13.438Z,11.61
2022-10-11T19:54:43.177Z,11.58
2022-10-11T19:57:12.883Z,11.56
2022-10-11T19:59:42.898Z,11.55
2022-10-11T20:02:15.703Z,11.54
2022-10-11T20:04:52.425Z,11.52
2022-10-11T20:07:22.729Z,11.48
2022-10-11T20:09:52.568Z,11.45
2022-10-11T20:12:22.394Z,11.44
2022-10-11T20:14:52.305Z,11.40
2022-10-11T20:17:45.036Z,11.36
2022-10-11T20:20:14.951Z,11.34
2022-10-11T20:22:44.710Z,11.32
2022-10-11T20:25:14.642Z,11.29
2022-10-11T20:27:46.502Z,11.24
2022-10-11T20:30:16.812Z,11.22
2022-10-11T20:32:49.357Z,11.19
2022-10-11T20:35:19.318Z,11.16
2022-10-11T20:37:49.552Z,11.15
2022-10-11T20:40:19.570Z,11.12
2022-10-11T20:42:49.281Z,11.10
2022-10-11T20:45:19.376Z,11.07
2022-10-11T20:47:51.871Z,11.06
2022-10-11T20:50:23.186Z,11.03
2022-10-11T20:52:53.030Z,11.00
2022-10-11T20:55:22.905Z,10.98
2022-10-11T20:57:52.936Z,10.94
2022-10-11T21:00:23.548Z,10.94
2022-10-11T21:02:56.501Z,10.92
2022-10-11T21:05:26.223Z,10.89
2022-10-11T21:07:55.954Z,10.88
2022-10-11T21:10:25.841Z,10.85
2022-10-11T21:12:55.611Z,10.82
2022-10-11T21:15:25.482Z,10.80
2022-10-11T21:17:57.845Z,10.78
2022-10-11T21:20:27.944Z,10.75
2022-10-11T21:22:57.717Z,10.73
2022-10-11T21:25:27.485Z,10.70
2022-10-11T21:27:57.209Z,10.70
2022-10-11T21:30:27.151Z,10.68
2022-10-11T21:32:59.717Z,10.67
2022-10-11T21:35:30.633Z,10.64
2022-10-11T21:38:01.888Z,10.63
2022-10-11T21:40:31.607Z,10.60
2022-10-11T21:43:01.333Z,10.58
2022-10-11T21:45:31.062Z,10.56
2022-10-11T21:48:03.472Z,10.54
2022-10-11T21:50:33.277Z,10.51
2022-10-11T21:53:03.005Z,10.51
2022-10-11T21:55:32.737Z,10.49
2022-10-11T21:58:02.501Z,10.48
2022-10-11T22:00:32.282Z,10.46
2022-10-11T22:03:04.667Z,10.44
2022-10-11T22:05:34.585Z,10.41
2022-10-11T22:08:04.308Z,10.39
2022-10-11T22:10:35.172Z,10.37
2022-10-11T22:13:04.980Z,10.34
2022-10-11T22:15:36.397Z,10.32
2022-10-11T22:18:09.135Z,10.30
2022-10-11T22:20:38.891Z,10.29
2022-10-11T22:23:08.679Z,10.28
2022-10-11T22:25:38.745Z,10.26
2022-10-11T22:28:09.203Z,10.25
2022-10-11T22:30:38.958Z,10.22
2022-10-11T22:33:11.334Z,10.20
2022-10-11T22:35:41.082Z,10.18
2022-10-11T22:38:10.802Z,10.18
2022-10-11T22:40:42.531Z,10.16
2022-10-11T22:43:12.254Z,10.14
2022-10-11T22:45:42.011Z,10.10
2022-10-11T22:48:15.246Z,10.09
2022-10-11T22:50:45.552Z,10.08
2022-10-11T22:53:16.565Z,10.05
2022-10-11T22:55:46.734Z,10.04
2022-10-11T22:58:16.646Z,10.03
2022-10-11T23:00:46.828Z,10.01
2022-10-11T23:03:20.540Z,10.02
2022-10-11T23:05:57.085Z,10.00
2022-10-11T23:08:27.078Z,9.99
2022-10-11T23:10:57.015Z,9.95
2022-10-11T23:13:26.779Z,9.93
2022-10-11T23:15:56.548Z,9.91
2022-10-11T23:18:28.935Z,9.89
2022-10-11T23:21:02.200Z,9.86
2022-10-11T23:23:32.243Z,9.83
2022-10-11T23:26:07.288Z,9.82
2022-10-11T23:28:37.321Z,9.79
2022-10-11T23:31:14.348Z,9.78
2022-10-11T23:33:47.033Z,9.73
2022-10-11T23:36:22.149Z,9.72
2022-10-11T23:38:53.874Z,9.69
2022-10-11T23:41:23.904Z,9.68
2022-10-11T23:43:53.677Z,9.64
2022-10-11T23:46:23.860Z,9.64
2022-10-11T23:48:56.235Z,9.63
2022-10-11T23:51:25.950Z,9.59
2022-10-11T23:53:55.886Z,9.57
2022-10-11T23:56:25.621Z,9.56
2022-10-11T23:58:55.365Z,9.56
